Time;durP1;ratioP1;P1;durP2;ratioP2;P2;SDS_P1;SDS_P2;PMS_P1;PMS_P2;Temp;Humidity;BMP_temperature;BMP_pressure;BME280_temperature;BME280_humidity;BME280_pressure;Samples;Min_cycle;Max_cycle;Signal;HPM_P1;HPM_P2
2022/08/02 00:00:39;;;;;;;2.22;1.90;;;;;;;;;;8410849;28;20058;-71
2022/08/02 00:04:39;;;;;;;5.32;2.13;;;;;;;;;;8392244;28;20138;-72
2022/08/02 00:08:40;;;;;;;4.30;2.08;;;;;;;;;;8413664;28;20031;-71
2022/08/02 00:12:40;;;;;;;4.28;2.10;;;;;;;;;;8412498;28;20036;-71
2022/08/02 00:16:40;;;;;;;2.42;2.05;;;;;;;;;;8412368;28;20786;-71
2022/08/02 00:20:40;;;;;;;1.95;1.85;;;;;;;;;;8411616;28;20024;-71
2022/08/02 00:24:41;;;;;;;1.90;1.80;;;;;;;;;;8394018;28;20052;-71
2022/08/02 00:28:41;;;;;;;2.08;1.98;;;;;;;;;;8413175;28;20028;-71
2022/08/02 00:32:41;;;;;;;2.85;2.00;;;;;;;;;;8416958;28;20047;-71
2022/08/02 00:36:41;;;;;;;3.15;2.15;;;;;;;;;;8419265;28;20038;-71
2022/08/02 00:40:51;;;;;;;2.25;2.05;;;;;;;;;;8399264;28;20015;-71
2022/08/02 00:44:51;;;;;;;3.45;1.80;;;;;;;;;;8418549;28;20028;-71
2022/08/02 00:48:51;;;;;;;1.70;1.60;;;;;;;;;;8417632;28;20042;-71
2022/08/02 00:52:52;;;;;;;2.10;2.00;;;;;;;;;;8418802;28;20568;-71
2022/08/02 00:56:52;;;;;;;2.13;2.03;;;;;;;;;;8398659;28;20051;-71
2022/08/02 01:00:53;;;;;;;1.88;1.77;;;;;;;;;;8397168;28;20071;-71
2022/08/02 01:04:53;;;;;;;2.10;1.90;;;;;;;;;;8417255;28;20110;-71
2022/08/02 01:08:53;;;;;;;3.33;1.92;;;;;;;;;;8418832;28;20330;-71
2022/08/02 01:12:53;;;;;;;1.77;1.67;;;;;;;;;;8416218;28;20031;-71
2022/08/02 01:16:59;;;;;;;2.30;1.92;;;;;;;;;;8415533;28;20207;-71
2022/08/02 01:21:17;;;;;;;1.92;1.73;;;;;;;;;;8414849;28;20028;-71
2022/08/02 01:25:27;;;;;;;1.80;1.70;;;;;;;;;;8401837;28;20035;-71
2022/08/02 01:29:36;;;;;;;2.20;2.00;;;;;;;;;;8417658;28;20146;-71
2022/08/02 01:33:41;;;;;;;4.03;2.20;;;;;;;;;;8416402;27;20634;-71
2022/08/02 01:37:50;;;;;;;1.90;1.80;;;;;;;;;;8417741;28;20034;-71
2022/08/02 01:41:51;;;;;;;2.35;1.90;;;;;;;;;;8413833;28;20901;-71
2022/08/02 01:45:52;;;;;;;4.13;2.15;;;;;;;;;;8417089;27;20031;-71
2022/08/02 01:49:54;;;;;;;2.10;2.00;;;;;;;;;;8415764;28;20142;-71
2022/08/02 01:53:54;;;;;;;3.72;2.10;;;;;;;;;;8417755;28;20024;-71
2022/08/02 01:57:56;;;;;;;2.25;2.15;;;;;;;;;;8417585;28;20031;-71
2022/08/02 02:01:58;;;;;;;3.35;2.40;;;;;;;;;;8416366;28;20143;-71
2022/08/02 02:05:58;;;;;;;2.13;2.03;;;;;;;;;;8416875;28;20020;-71
2022/08/02 02:10:00;;;;;;;2.20;2.00;;;;;;;;;;8413282;28;20126;-71
2022/08/02 02:14:01;;;;;;;2.10;2.00;;;;;;;;;;8415201;27;20867;-71
2022/08/02 02:18:01;;;;;;;2.50;1.98;;;;;;;;;;8415407;27;20032;-71
2022/08/02 02:22:02;;;;;;;2.20;2.00;;;;;;;;;;8415361;28;20031;-71
2022/08/02 02:26:04;;;;;;;1.95;1.85;;;;;;;;;;8416803;28;20103;-71
2022/08/02 02:30:05;;;;;;;4.53;1.90;;;;;;;;;;8414327;28;20233;-72
2022/08/02 02:34:09;;;;;;;2.65;1.98;;;;;;;;;;8415581;28;20054;-71
2022/08/02 02:38:11;;;;;;;1.90;1.80;;;;;;;;;;8416767;28;20028;-71
2022/08/02 02:42:13;;;;;;;2.40;2.20;;;;;;;;;;8413951;28;20031;-71
2022/08/02 02:46:15;;;;;;;3.15;2.10;;;;;;;;;;8413169;28;20040;-71
2022/08/02 02:50:16;;;;;;;2.00;1.90;;;;;;;;;;8415456;28;20736;-71
2022/08/02 02:54:17;;;;;;;3.45;1.90;;;;;;;;;;8412322;28;20023;-71
2022/08/02 02:58:17;;;;;;;2.30;2.08;;;;;;;;;;8415332;28;20047;-71
2022/08/02 03:02:18;;;;;;;1.95;1.70;;;;;;;;;;8414123;28;20067;-71
2022/08/02 03:06:18;;;;;;;1.98;1.88;;;;;;;;;;8413527;28;20155;-71
2022/08/02 03:10:19;;;;;;;2.13;1.92;;;;;;;;;;8415288;28;20120;-71
2022/08/02 03:14:19;;;;;;;2.10;1.92;;;;;;;;;;8414723;27;20074;-71
2022/08/02 03:18:32;;;;;;;2.80;1.95;;;;;;;;;;8412047;28;20729;-71
2022/08/02 03:22:33;;;;;;;3.05;2.03;;;;;;;;;;8414366;27;20030;-71
2022/08/02 03:26:33;;;;;;;2.10;1.90;;;;;;;;;;8412792;27;20028;-71
2022/08/02 03:30:33;;;;;;;2.60;1.90;;;;;;;;;;8412685;28;20039;-71
2022/08/02 03:34:34;;;;;;;3.60;1.90;;;;;;;;;;8395491;28;20024;-71
2022/08/02 03:38:35;;;;;;;2.42;2.05;;;;;;;;;;8414659;28;20011;-71
2022/08/02 03:42:35;;;;;;;1.90;1.80;;;;;;;;;;8412662;28;20026;-71
2022/08/02 03:46:38;;;;;;;2.17;1.97;;;;;;;;;;8414756;28;20039;-71
2022/08/02 03:50:39;;;;;;;2.43;2.23;;;;;;;;;;8412874;28;20488;-71
2022/08/02 03:54:39;;;;;;;2.97;2.20;;;;;;;;;;8414648;28;20265;-71
2022/08/02 03:58:39;;;;;;;2.30;2.00;;;;;;;;;;8413220;28;20027;-71
2022/08/02 04:02:39;;;;;;;4.28;2.10;;;;;;;;;;8412504;28;20032;-71
2022/08/02 04:06:39;;;;;;;2.43;2.20;;;;;;;;;;8413841;28;20023;-71
2022/08/02 04:14:59;;;;;;;6.00;2.08;;;;;;;;;;8415587;28;20034;-72
2022/08/02 04:19:00;;;;;;;4.53;2.00;;;;;;;;;;8412122;28;20036;-71
2022/08/02 04:23:01;;;;;;;7.53;2.20;;;;;;;;;;8412948;28;20149;-71
2022/08/02 04:27:02;;;;;;;2.85;2.25;;;;;;;;;;8413205;28;20019;-71
2022/08/02 04:31:03;;;;;;;3.13;1.95;;;;;;;;;;8412330;28;20048;-71
2022/08/02 04:35:03;;;;;;;2.60;2.28;;;;;;;;;;8412682;28;20023;-72
2022/08/02 04:39:03;;;;;;;2.33;2.10;;;;;;;;;;8412928;28;20027;-71
2022/08/02 04:43:03;;;;;;;3.37;1.93;;;;;;;;;;8413285;28;20032;-71
2022/08/02 04:47:04;;;;;;;5.10;2.03;;;;;;;;;;8411839;28;20440;-71
2022/08/02 04:51:04;;;;;;;6.75;2.10;;;;;;;;;;8412997;28;20031;-71
2022/08/02 04:55:05;;;;;;;5.03;2.20;;;;;;;;;;8412258;28;20023;-71
2022/08/02 04:59:05;;;;;;;5.28;2.40;;;;;;;;;;8412608;28;20029;-71
2022/08/02 05:03:06;;;;;;;5.35;2.50;;;;;;;;;;8411088;28;20445;-71
2022/08/02 05:07:06;;;;;;;7.17;2.33;;;;;;;;;;8413263;28;20705;-71
2022/08/02 05:11:06;;;;;;;4.90;2.60;;;;;;;;;;8412491;28;20381;-71
2022/08/02 05:15:07;;;;;;;8.05;2.53;;;;;;;;;;8412500;28;20023;-71
2022/08/02 05:19:07;;;;;;;7.63;2.70;;;;;;;;;;8417056;27;20449;-71
2022/08/02 05:23:07;;;;;;;7.60;2.67;;;;;;;;;;8417230;28;20496;-71
2022/08/02 05:27:07;;;;;;;9.45;3.20;;;;;;;;;;8418214;28;20027;-71
2022/08/02 05:31:07;;;;;;;11.32;3.13;;;;;;;;;;8415815;28;20043;-71
2022/08/02 05:35:08;;;;;;;15.10;3.65;;;;;;;;;;8418216;28;20086;-71
2022/08/02 05:39:08;;;;;;;7.63;3.00;;;;;;;;;;8418603;28;20314;-71
2022/08/02 05:43:12;;;;;;;10.80;3.20;;;;;;;;;;8416245;28;20020;-72
2022/08/02 05:47:12;;;;;;;10.82;3.15;;;;;;;;;;8418181;28;20042;-72
2022/08/02 05:51:21;;;;;;;10.93;3.13;;;;;;;;;;8417492;28;20991;-72
2022/08/02 05:55:31;;;;;;;10.07;3.00;;;;;;;;;;8418425;28;20166;-71
2022/08/02 05:59:32;;;;;;;6.68;2.25;;;;;;;;;;8419067;28;20023;-71
2022/08/02 06:03:38;;;;;;;5.30;2.20;;;;;;;;;;8415654;28;20050;-71
2022/08/02 06:07:40;;;;;;;3.83;2.10;;;;;;;;;;8419048;28;20065;-72
2022/08/02 06:11:44;;;;;;;3.45;1.70;;;;;;;;;;8417562;27;20027;-71
2022/08/02 06:15:44;;;;;;;1.80;1.50;;;;;;;;;;8417798;28;20028;-72
2022/08/02 06:19:45;;;;;;;2.35;1.50;;;;;;;;;;8392418;28;20107;-71
2022/08/02 06:23:46;;;;;;;4.60;1.80;;;;;;;;;;8416460;28;20031;-71
2022/08/02 06:27:47;;;;;;;3.65;1.60;;;;;;;;;;8416718;28;20073;-72
2022/08/02 06:31:48;;;;;;;2.67;1.40;;;;;;;;;;8416308;28;20043;-72
2022/08/02 06:35:53;;;;;;;3.83;1.60;;;;;;;;;;8417465;28;20031;-72
2022/08/02 06:40:00;;;;;;;1.50;1.20;;;;;;;;;;8418113;28;20031;-71
2022/08/02 06:44:01;;;;;;;1.95;1.30;;;;;;;;;;8417917;28;20095;-72
2022/08/02 06:48:02;;;;;;;1.95;1.40;;;;;;;;;;8412409;28;20059;-71
2022/08/02 06:52:03;;;;;;;2.78;1.10;;;;;;;;;;8417688;28;20115;-72
2022/08/02 06:56:03;;;;;;;4.22;1.20;;;;;;;;;;8416364;27;20106;-72
2022/08/02 07:00:07;;;;;;;1.48;1.10;;;;;;;;;;8414822;28;20023;-72
2022/08/02 07:04:08;;;;;;;1.67;1.02;;;;;;;;;;8416119;28;20073;-72
2022/08/02 07:08:08;;;;;;;1.08;1.00;;;;;;;;;;8414813;28;20745;-72
2022/08/02 07:12:08;;;;;;;1.60;1.10;;;;;;;;;;8415082;28;20038;-72
2022/08/02 07:16:09;;;;;;;1.40;1.10;;;;;;;;;;8415424;28;20127;-72
2022/08/02 07:20:09;;;;;;;1.55;1.10;;;;;;;;;;8413601;28;20092;-72
2022/08/02 07:24:10;;;;;;;1.47;1.10;;;;;;;;;;8415086;28;20019;-71
2022/08/02 07:28:10;;;;;;;1.40;1.10;;;;;;;;;;8414285;28;20032;-72
2022/08/02 07:32:10;;;;;;;0.88;0.88;;;;;;;;;;8413189;28;20132;-72
2022/08/02 07:36:10;;;;;;;0.90;0.90;;;;;;;;;;8414356;28;20039;-72
2022/08/02 07:40:11;;;;;;;1.85;1.15;;;;;;;;;;8413812;27;20027;-72
2022/08/02 07:44:11;;;;;;;0.93;0.90;;;;;;;;;;8414441;28;20062;-72
2022/08/02 07:48:12;;;;;;;1.50;0.95;;;;;;;;;;8414194;28;20066;-72
2022/08/02 07:52:12;;;;;;;0.63;0.63;;;;;;;;;;8411921;28;20698;-72
2022/08/02 07:56:12;;;;;;;1.27;0.90;;;;;;;;;;8414991;28;20024;-72
2022/08/02 08:00:14;;;;;;;0.90;0.90;;;;;;;;;;8413228;28;21030;-72
2022/08/02 08:04:15;;;;;;;0.82;0.73;;;;;;;;;;8414434;28;20051;-72
2022/08/02 08:08:15;;;;;;;0.80;0.80;;;;;;;;;;8414888;28;20984;-72
2022/08/02 08:12:15;;;;;;;1.25;0.70;;;;;;;;;;8392625;28;20753;-72
2022/08/02 08:16:16;;;;;;;2.17;0.87;;;;;;;;;;8413752;28;20580;-72
2022/08/02 08:20:16;;;;;;;0.77;0.77;;;;;;;;;;8391524;28;20135;-72
2022/08/02 08:24:16;;;;;;;1.15;1.05;;;;;;;;;;8413121;28;20484;-72
2022/08/02 08:28:16;;;;;;;0.80;0.80;;;;;;;;;;8413561;28;20034;-72
2022/08/02 08:32:17;;;;;;;0.98;0.90;;;;;;;;;;8413016;28;20060;-72
2022/08/02 08:36:18;;;;;;;0.80;0.80;;;;;;;;;;8413365;28;20032;-72
2022/08/02 08:40:19;;;;;;;1.43;0.87;;;;;;;;;;8413685;28;20292;-72
2022/08/02 08:44:19;;;;;;;0.70;0.70;;;;;;;;;;8412493;28;20036;-72
2022/08/02 08:48:21;;;;;;;5.47;0.87;;;;;;;;;;8398246;28;20046;-72
2022/08/02 08:52:22;;;;;;;0.80;0.80;;;;;;;;;;8415334;28;20029;-72
2022/08/02 08:56:22;;;;;;;0.80;0.80;;;;;;;;;;8420293;27;20180;-72
2022/08/02 09:00:23;;;;;;;0.68;0.68;;;;;;;;;;8418871;28;20062;-72
2022/08/02 09:04:23;;;;;;;3.42;0.80;;;;;;;;;;8420543;28;20027;-71
2022/08/02 09:08:24;;;;;;;1.13;0.90;;;;;;;;;;8419542;28;20030;-72
2022/08/02 09:12:24;;;;;;;2.53;0.80;;;;;;;;;;8419820;28;20027;-72
2022/08/02 09:16:32;;;;;;;0.70;0.70;;;;;;;;;;8419100;28;20047;-73
2022/08/02 09:20:33;;;;;;;0.70;0.70;;;;;;;;;;8417569;28;20084;-72
2022/08/02 09:25:00;;;;;;;1.42;0.80;;;;;;;;;;8419244;28;20084;-72
2022/08/02 09:29:01;;;;;;;2.45;0.80;;;;;;;;;;8410799;28;20410;-72
2022/08/02 09:33:01;;;;;;;2.13;0.70;;;;;;;;;;8416827;28;20511;-72
2022/08/02 09:37:01;;;;;;;1.17;0.90;;;;;;;;;;8419298;28;20031;-72
2022/08/02 09:41:02;;;;;;;0.80;0.80;;;;;;;;;;8417693;28;20024;-72
2022/08/02 09:45:02;;;;;;;2.93;0.80;;;;;;;;;;8399252;28;20059;-72
2022/08/02 09:49:23;;;;;;;3.13;0.97;;;;;;;;;;8418949;28;20040;-72
2022/08/02 09:53:23;;;;;;;1.52;0.90;;;;;;;;;;8416216;28;20430;-72
2022/08/02 09:57:25;;;;;;;1.75;1.00;;;;;;;;;;8418773;27;20027;-72
2022/08/02 10:01:29;;;;;;;2.80;0.98;;;;;;;;;;8417208;28;20408;-71
2022/08/02 10:05:30;;;;;;;1.48;0.70;;;;;;;;;;8416048;28;20028;-72
2022/08/02 10:09:30;;;;;;;0.95;0.90;;;;;;;;;;8417992;28;20684;-72
2022/08/02 10:13:33;;;;;;;2.43;0.90;;;;;;;;;;8416352;28;20490;-72
2022/08/02 10:17:34;;;;;;;0.80;0.80;;;;;;;;;;8417070;28;20112;-72
2022/08/02 10:21:43;;;;;;;2.35;0.95;;;;;;;;;;8395881;28;20023;-72
2022/08/02 10:25:44;;;;;;;0.80;0.80;;;;;;;;;;8416954;28;20023;-72
2022/08/02 10:29:45;;;;;;;0.97;0.80;;;;;;;;;;8415827;28;20847;-72
2022/08/02 10:33:46;;;;;;;2.37;0.80;;;;;;;;;;8415913;28;20054;-72
2022/08/02 10:37:49;;;;;;;0.70;0.70;;;;;;;;;;8416363;28;20283;-72
2022/08/02 10:41:50;;;;;;;0.70;0.70;;;;;;;;;;8416179;28;20019;-72
2022/08/02 10:45:50;;;;;;;2.08;0.80;;;;;;;;;;8416736;28;20059;-72
2022/08/02 10:49:55;;;;;;;1.40;0.80;;;;;;;;;;8414796;28;20110;-72
2022/08/02 10:54:07;;;;;;;1.15;0.80;;;;;;;;;;8417693;27;20176;-73
2022/08/02 10:58:15;;;;;;;0.80;0.80;;;;;;;;;;8414995;28;20111;-72
2022/08/02 11:02:32;;;;;;;1.40;0.88;;;;;;;;;;8416528;28;20055;-73
2022/08/02 11:06:32;;;;;;;1.25;0.80;;;;;;;;;;8416881;27;20909;-72
2022/08/02 11:10:32;;;;;;;3.88;1.00;;;;;;;;;;8415929;28;20026;-72
2022/08/02 11:14:36;;;;;;;2.70;0.90;;;;;;;;;;8414498;28;20034;-72
2022/08/02 11:18:42;;;;;;;1.40;0.80;;;;;;;;;;8414683;28;20096;-72
2022/08/02 11:22:43;;;;;;;2.65;1.00;;;;;;;;;;8414188;28;20987;-72
2022/08/02 11:26:44;;;;;;;0.70;0.70;;;;;;;;;;8406718;28;20023;-72
2022/08/02 11:30:44;;;;;;;3.10;1.00;;;;;;;;;;8413552;28;20155;-72
2022/08/02 11:34:45;;;;;;;0.85;0.70;;;;;;;;;;8414331;28;20601;-72
2022/08/02 11:38:45;;;;;;;1.30;0.90;;;;;;;;;;8414280;28;20034;-72
2022/08/02 11:42:49;;;;;;;4.50;0.90;;;;;;;;;;8411629;28;20019;-72
2022/08/02 11:46:56;;;;;;;2.05;0.70;;;;;;;;;;8413929;28;20746;-72
2022/08/02 11:51:10;;;;;;;1.08;0.95;;;;;;;;;;8413420;28;21119;-72
2022/08/02 11:55:10;;;;;;;1.27;0.90;;;;;;;;;;8413778;28;20023;-72
2022/08/02 11:59:10;;;;;;;2.03;0.90;;;;;;;;;;8378733;28;20088;-72
2022/08/02 12:03:11;;;;;;;1.08;0.88;;;;;;;;;;8413356;28;20036;-72
2022/08/02 12:07:11;;;;;;;1.38;0.85;;;;;;;;;;8414761;28;21028;-72
2022/08/02 12:11:11;;;;;;;3.77;1.10;;;;;;;;;;8413289;28;20027;-72
2022/08/02 12:15:12;;;;;;;3.05;0.90;;;;;;;;;;8412646;28;20795;-73
2022/08/02 12:19:18;;;;;;;1.10;1.00;;;;;;;;;;8413844;28;20074;-73
2022/08/02 12:23:19;;;;;;;3.78;1.00;;;;;;;;;;8411006;28;20016;-72
2022/08/02 12:27:28;;;;;;;1.13;1.03;;;;;;;;;;8417036;28;20030;-72
2022/08/02 12:31:46;;;;;;;2.28;1.10;;;;;;;;;;8420257;28;20047;-72
2022/08/02 12:35:46;;;;;;;2.03;0.88;;;;;;;;;;8420889;28;20070;-72
2022/08/02 12:39:49;;;;;;;4.50;1.00;;;;;;;;;;8400887;28;20605;-72
2022/08/02 12:43:50;;;;;;;1.48;1.10;;;;;;;;;;8420719;28;20023;-72
2022/08/02 12:47:52;;;;;;;1.80;1.00;;;;;;;;;;8420563;28;20040;-72
2022/08/02 12:51:52;;;;;;;;;;;;;;;;;;8420461;28;20464;-72
2022/08/02 12:55:56;;;;;;;2.08;1.00;;;;;;;;;;8420914;28;19911;-72
2022/08/02 12:59:56;;;;;;;3.00;0.98;;;;;;;;;;8418749;28;21379;-72
2022/08/02 13:03:57;;;;;;;3.17;0.90;;;;;;;;;;8419754;28;20047;-72
2022/08/02 13:07:58;;;;;;;2.88;1.00;;;;;;;;;;8420510;27;20054;-72
2022/08/02 13:11:58;;;;;;;4.20;0.90;;;;;;;;;;8418295;28;20035;-72
2022/08/02 13:15:58;;;;;;;4.60;1.10;;;;;;;;;;8420006;27;20074;-72
2022/08/02 13:19:58;;;;;;;1.45;1.10;;;;;;;;;;8418798;27;20040;-72
2022/08/02 13:23:58;;;;;;;1.58;1.10;;;;;;;;;;8419591;28;20016;-72
2022/08/02 13:27:58;;;;;;;0.90;0.90;;;;;;;;;;8399740;28;20058;-72
2022/08/02 13:31:59;;;;;;;2.05;1.15;;;;;;;;;;8417862;28;20469;-71
2022/08/02 13:35:59;;;;;;;1.85;0.90;;;;;;;;;;8418393;28;20049;-71
2022/08/02 13:39:59;;;;;;;0.90;0.90;;;;;;;;;;8418687;28;20404;-71
2022/08/02 13:43:59;;;;;;;2.47;1.00;;;;;;;;;;8417959;28;20487;-71
2022/08/02 13:47:59;;;;;;;1.10;1.00;;;;;;;;;;8418044;28;20032;-71
2022/08/02 13:51:59;;;;;;;2.53;1.15;;;;;;;;;;8397756;28;20471;-71
2022/08/02 13:56:01;;;;;;;1.77;1.10;;;;;;;;;;8418581;28;20031;-71
2022/08/02 14:00:01;;;;;;;;;;;;;;;;;;8419690;28;20019;-71
2022/08/02 14:04:02;;;;;;;5.60;0.90;;;;;;;;;;8417101;28;20764;-72
2022/08/02 14:08:02;;;;;;;2.00;0.90;;;;;;;;;;8418353;27;20733;-71
2022/08/02 14:12:03;;;;;;;1.55;1.25;;;;;;;;;;8416780;28;20044;-71
2022/08/02 14:16:03;;;;;;;1.80;0.90;;;;;;;;;;8416957;28;20043;-72
2022/08/02 14:20:04;;;;;;;2.43;0.90;;;;;;;;;;8415627;28;20289;-72
2022/08/02 14:24:04;;;;;;;1.10;0.90;;;;;;;;;;8415136;28;20582;-71
2022/08/02 14:28:04;;;;;;;1.03;0.80;;;;;;;;;;8413296;27;20530;-72
2022/08/02 14:32:05;;;;;;;0.83;0.83;;;;;;;;;;8411110;28;20109;-71
2022/08/02 14:36:05;;;;;;;1.10;1.10;;;;;;;;;;8413116;28;20020;-71
2022/08/02 14:40:06;;;;;;;1.45;0.82;;;;;;;;;;8410322;28;20030;-72
2022/08/02 14:44:06;;;;;;;2.10;1.00;;;;;;;;;;8410962;28;20027;-72
2022/08/02 14:48:07;;;;;;;1.17;0.93;;;;;;;;;;8410379;28;20076;-72
2022/08/02 14:52:08;;;;;;;1.75;0.90;;;;;;;;;;8411804;28;20331;-72
2022/08/02 14:56:08;;;;;;;1.42;1.00;;;;;;;;;;8411417;28;20422;-71
2022/08/02 15:00:08;;;;;;;0.98;0.90;;;;;;;;;;8410293;28;20321;-72
2022/08/02 15:04:08;;;;;;;1.13;1.07;;;;;;;;;;8413583;28;20073;-71
2022/08/02 15:08:09;;;;;;;2.63;1.00;;;;;;;;;;8412209;28;20028;-71
2022/08/02 15:12:10;;;;;;;1.85;0.90;;;;;;;;;;8411606;28;20027;-71
2022/08/02 15:16:10;;;;;;;3.78;1.00;;;;;;;;;;8412030;27;20401;-71
2022/08/02 15:20:10;;;;;;;0.90;0.90;;;;;;;;;;8410918;28;20035;-71
2022/08/02 15:24:11;;;;;;;5.40;0.90;;;;;;;;;;8412216;28;20852;-72
2022/08/02 15:28:11;;;;;;;1.48;1.00;;;;;;;;;;8413558;28;20460;-71
2022/08/02 15:32:11;;;;;;;1.42;0.98;;;;;;;;;;8414575;27;20043;-71
2022/08/02 15:36:11;;;;;;;1.03;0.80;;;;;;;;;;8415736;28;20039;-72
2022/08/02 15:40:12;;;;;;;5.25;1.00;;;;;;;;;;8414620;28;20024;-72
2022/08/02 15:44:12;;;;;;;1.33;1.10;;;;;;;;;;8414496;28;20467;-72
2022/08/02 15:48:13;;;;;;;1.00;0.87;;;;;;;;;;8413620;28;20400;-72
2022/08/02 15:52:13;;;;;;;0.80;0.80;;;;;;;;;;8413508;28;20034;-72
2022/08/02 15:56:13;;;;;;;1.07;1.07;;;;;;;;;;8414960;28;20080;-72
2022/08/02 16:00:14;;;;;;;1.23;1.10;;;;;;;;;;8394425;28;20059;-72
2022/08/02 16:04:15;;;;;;;1.08;0.95;;;;;;;;;;8415906;28;20012;-71
2022/08/02 16:08:16;;;;;;;4.07;1.33;;;;;;;;;;8386385;28;20023;-71
2022/08/02 16:12:16;;;;;;;1.50;0.93;;;;;;;;;;8414388;28;20027;-72
2022/08/02 16:16:16;;;;;;;1.50;1.00;;;;;;;;;;8413793;28;20066;-72
2022/08/02 16:20:16;;;;;;;0.88;0.88;;;;;;;;;;8414090;28;20110;-72
2022/08/02 16:24:16;;;;;;;2.25;0.95;;;;;;;;;;8412073;28;20023;-72
2022/08/02 16:28:17;;;;;;;2.77;1.20;;;;;;;;;;8414252;28;20122;-72
2022/08/02 16:32:17;;;;;;;1.40;0.80;;;;;;;;;;8412587;28;20129;-72
2022/08/02 16:36:17;;;;;;;1.10;1.00;;;;;;;;;;8413446;28;20708;-72
2022/08/02 16:40:17;;;;;;;11.88;1.27;;;;;;;;;;8412229;28;20606;-72
2022/08/02 16:44:18;;;;;;;2.65;1.02;;;;;;;;;;8394629;28;20019;-72
2022/08/02 16:48:18;;;;;;;3.70;0.98;;;;;;;;;;8412179;28;20134;-72
2022/08/02 16:52:18;;;;;;;1.00;0.90;;;;;;;;;;8411958;28;20031;-72
2022/08/02 16:56:19;;;;;;;1.02;0.98;;;;;;;;;;8413869;28;20027;-72
2022/08/02 17:00:19;;;;;;;3.42;1.10;;;;;;;;;;8411105;28;20725;-72
2022/08/02 17:04:19;;;;;;;2.53;0.90;;;;;;;;;;8412916;28;20496;-72
2022/08/02 17:08:19;;;;;;;2.38;1.08;;;;;;;;;;8413281;28;20024;-72
2022/08/02 17:12:20;;;;;;;1.60;1.00;;;;;;;;;;8412441;28;20104;-72
2022/08/02 17:16:20;;;;;;;3.40;1.10;;;;;;;;;;8418426;28;20170;-72
2022/08/02 17:20:20;;;;;;;1.15;0.90;;;;;;;;;;8418528;28;20384;-71
2022/08/02 17:24:20;;;;;;;1.50;1.02;;;;;;;;;;8418154;28;20022;-72
2022/08/02 17:28:20;;;;;;;7.22;1.00;;;;;;;;;;8419675;28;20031;-71
2022/08/02 17:32:21;;;;;;;3.35;1.20;;;;;;;;;;8381991;27;1049758;-72
2022/08/02 17:36:21;;;;;;;1.63;1.00;;;;;;;;;;8418570;28;20032;-72
2022/08/02 17:40:21;;;;;;;2.17;0.90;;;;;;;;;;8419531;28;20061;-72
2022/08/02 17:44:21;;;;;;;2.22;1.10;;;;;;;;;;8419530;28;20032;-72
2022/08/02 17:48:21;;;;;;;1.83;1.10;;;;;;;;;;8401581;28;20150;-72
2022/08/02 17:52:22;;;;;;;1.33;1.10;;;;;;;;;;8418559;28;20130;-72
2022/08/02 17:56:22;;;;;;;3.30;1.10;;;;;;;;;;8419834;28;20026;-72
2022/08/02 18:00:25;;;;;;;1.23;1.00;;;;;;;;;;8416287;28;20522;-72
2022/08/02 18:04:26;;;;;;;1.15;1.08;;;;;;;;;;8418560;28;20023;-72
2022/08/02 18:08:26;;;;;;;4.22;1.02;;;;;;;;;;8419477;27;20625;-72
2022/08/02 18:12:26;;;;;;;1.10;1.00;;;;;;;;;;8417995;28;20019;-72
2022/08/02 18:16:27;;;;;;;2.47;1.10;;;;;;;;;;8418762;28;20027;-72
2022/08/02 18:20:27;;;;;;;3.15;1.00;;;;;;;;;;8416108;28;20627;-72
2022/08/02 18:24:28;;;;;;;3.55;1.20;;;;;;;;;;8417682;28;20028;-72
2022/08/02 18:28:29;;;;;;;7.57;1.05;;;;;;;;;;8417406;27;20555;-72
2022/08/02 18:32:30;;;;;;;2.65;1.15;;;;;;;;;;8417974;28;20050;-72
2022/08/02 18:36:31;;;;;;;3.97;1.05;;;;;;;;;;8416867;28;20761;-72
2022/08/02 18:40:31;;;;;;;3.17;1.10;;;;;;;;;;8417563;27;20160;-72
2022/08/02 18:44:31;;;;;;;1.40;0.90;;;;;;;;;;8418052;28;20433;-72
2022/08/02 18:48:32;;;;;;;1.05;0.88;;;;;;;;;;8417681;28;20035;-72
2022/08/02 18:52:32;;;;;;;1.75;1.15;;;;;;;;;;8417566;28;20118;-72
2022/08/02 18:56:32;;;;;;;1.17;1.00;;;;;;;;;;8416723;28;20059;-72
2022/08/02 19:00:33;;;;;;;5.00;1.10;;;;;;;;;;8416599;28;20031;-72
2022/08/02 19:04:33;;;;;;;1.77;1.20;;;;;;;;;;8416046;28;20027;-72
2022/08/02 19:08:33;;;;;;;1.15;0.90;;;;;;;;;;8416857;28;20281;-72
2022/08/02 19:12:33;;;;;;;0.90;0.90;;;;;;;;;;8396818;28;20031;-71
2022/08/02 19:16:34;;;;;;;4.13;1.20;;;;;;;;;;8416816;28;20172;-72
2022/08/02 19:20:34;;;;;;;2.90;1.00;;;;;;;;;;8415618;28;20067;-72
2022/08/02 19:24:36;;;;;;;1.40;1.00;;;;;;;;;;8415849;28;20091;-72
2022/08/02 19:28:38;;;;;;;1.30;0.82;;;;;;;;;;8416662;28;20028;-72
2022/08/02 19:32:38;;;;;;;1.17;1.10;;;;;;;;;;8415891;28;20043;-72
2022/08/02 19:36:39;;;;;;;1.88;1.00;;;;;;;;;;8415226;28;20019;-72
2022/08/02 19:40:40;;;;;;;4.85;1.08;;;;;;;;;;8415211;28;20027;-72
2022/08/02 19:44:41;;;;;;;2.58;1.10;;;;;;;;;;8415295;28;20110;-72
2022/08/02 19:48:41;;;;;;;1.05;1.00;;;;;;;;;;8413433;28;20079;-72
2022/08/02 19:52:41;;;;;;;3.20;1.00;;;;;;;;;;8414841;28;20076;-72
2022/08/02 19:56:41;;;;;;;1.10;1.00;;;;;;;;;;8414800;28;20023;-72
2022/08/02 20:00:41;;;;;;;1.90;0.90;;;;;;;;;;8413974;28;20039;-71
2022/08/02 20:04:42;;;;;;;2.92;0.90;;;;;;;;;;8415377;28;20266;-72
2022/08/02 20:08:42;;;;;;;3.30;1.10;;;;;;;;;;8417096;28;20914;-72
2022/08/02 20:12:42;;;;;;;1.50;1.10;;;;;;;;;;8415350;28;20809;-72
2022/08/02 20:16:42;;;;;;;1.40;1.20;;;;;;;;;;8414987;28;20036;-72
2022/08/02 20:20:44;;;;;;;2.88;1.20;;;;;;;;;;8414154;28;20113;-72
2022/08/02 20:24:44;;;;;;;2.13;1.15;;;;;;;;;;8415170;28;20126;-72
2022/08/02 20:28:45;;;;;;;3.08;1.20;;;;;;;;;;8415066;28;20105;-72
2022/08/02 20:32:45;;;;;;;6.33;1.30;;;;;;;;;;8413818;28;20093;-71
2022/08/02 20:36:46;;;;;;;3.53;1.20;;;;;;;;;;8415289;28;20258;-72
2022/08/02 20:40:46;;;;;;;1.10;1.10;;;;;;;;;;8414140;28;20020;-72
2022/08/02 20:44:46;;;;;;;2.75;1.10;;;;;;;;;;8414834;28;20077;-72
2022/08/02 20:48:46;;;;;;;1.95;1.20;;;;;;;;;;8417723;28;20447;-72
2022/08/02 20:52:46;;;;;;;1.27;1.17;;;;;;;;;;8421197;28;20551;-72
2022/08/02 20:56:47;;;;;;;1.80;1.10;;;;;;;;;;8421599;27;20023;-71
2022/08/02 21:00:47;;;;;;;1.40;1.10;;;;;;;;;;8420391;28;20553;-72
2022/08/02 21:04:47;;;;;;;2.60;1.00;;;;;;;;;;8421474;28;20031;-72
2022/08/02 21:08:47;;;;;;;5.47;1.10;;;;;;;;;;8421196;28;20034;-71
2022/08/02 21:12:48;;;;;;;3.78;1.40;;;;;;;;;;8401242;28;20478;-72
2022/08/02 21:16:48;;;;;;;5.05;1.13;;;;;;;;;;8420825;27;20051;-72
2022/08/02 21:20:48;;;;;;;1.15;1.10;;;;;;;;;;8420343;28;20908;-71
2022/08/02 21:24:48;;;;;;;1.40;1.20;;;;;;;;;;8400964;28;20023;-72
2022/08/02 21:28:49;;;;;;;1.30;1.20;;;;;;;;;;8420676;27;20027;-72
2022/08/02 21:32:50;;;;;;;1.55;1.10;;;;;;;;;;8419457;28;20811;-71
2022/08/02 21:36:50;;;;;;;2.53;1.30;;;;;;;;;;8392109;28;20023;-72
2022/08/02 21:40:52;;;;;;;3.05;1.23;;;;;;;;;;8420745;27;20370;-72
2022/08/02 21:44:52;;;;;;;1.35;1.20;;;;;;;;;;8420166;28;20036;-72
2022/08/02 21:48:52;;;;;;;1.52;1.08;;;;;;;;;;8419588;28;20078;-72
2022/08/02 21:52:53;;;;;;;1.83;1.30;;;;;;;;;;8419888;28;20105;-71
2022/08/02 21:56:53;;;;;;;2.65;1.17;;;;;;;;;;8401125;28;20084;-71
2022/08/02 22:00:53;;;;;;;2.75;1.40;;;;;;;;;;8418083;28;20044;-72
2022/08/02 22:04:53;;;;;;;2.05;1.10;;;;;;;;;;8420543;28;20027;-72
2022/08/02 22:08:54;;;;;;;1.42;1.20;;;;;;;;;;8419693;28;20031;-72
2022/08/02 22:12:54;;;;;;;3.85;1.38;;;;;;;;;;8418967;28;20028;-73
2022/08/02 22:16:54;;;;;;;1.20;1.10;;;;;;;;;;8420491;28;20037;-71
2022/08/02 22:20:54;;;;;;;1.30;1.20;;;;;;;;;;8420639;28;20403;-71
2022/08/02 22:24:55;;;;;;;4.80;1.30;;;;;;;;;;8401030;28;20570;-72
2022/08/02 22:28:55;;;;;;;2.22;1.20;;;;;;;;;;8420344;28;20273;-72
2022/08/02 22:37:14;;;;;;;1.17;1.08;;;;;;;;;;8420686;28;20302;-72
2022/08/02 22:41:15;;;;;;;1.98;1.10;;;;;;;;;;8418476;28;20023;-71
2022/08/02 22:45:15;;;;;;;2.10;1.00;;;;;;;;;;8420068;28;20015;-72
2022/08/02 22:49:15;;;;;;;1.40;1.30;;;;;;;;;;8418965;27;20084;-72
2022/08/02 22:53:15;;;;;;;1.88;1.10;;;;;;;;;;8417928;28;20031;-72
2022/08/02 22:57:15;;;;;;;1.73;1.27;;;;;;;;;;8418719;28;20058;-72
2022/08/02 23:01:15;;;;;;;1.30;1.20;;;;;;;;;;8418512;28;20047;-71
2022/08/02 23:05:16;;;;;;;1.10;1.10;;;;;;;;;;8418295;28;21193;-72
2022/08/02 23:09:16;;;;;;;2.00;1.20;;;;;;;;;;8419143;27;20901;-72
2022/08/02 23:13:16;;;;;;;2.30;1.10;;;;;;;;;;8417671;28;20097;-72
2022/08/02 23:21:36;;;;;;;1.30;1.20;;;;;;;;;;8417571;28;20046;-72
2022/08/02 23:25:36;;;;;;;2.42;1.20;;;;;;;;;;8417236;28;20357;-72
2022/08/02 23:29:36;;;;;;;1.42;1.20;;;;;;;;;;8396750;28;20539;-72
2022/08/02 23:33:36;;;;;;;3.50;1.23;;;;;;;;;;8415409;28;20039;-71
2022/08/02 23:37:37;;;;;;;1.58;1.15;;;;;;;;;;8416917;28;20024;-71
2022/08/02 23:41:37;;;;;;;1.92;1.00;;;;;;;;;;8417043;27;20099;-72
2022/08/02 23:45:37;;;;;;;1.30;1.20;;;;;;;;;;8416742;28;20088;-72
2022/08/02 23:49:37;;;;;;;1.27;1.10;;;;;;;;;;8416004;28;20423;-71
2022/08/02 23:53:37;;;;;;;1.63;1.30;;;;;;;;;;8416254;28;20049;-72
2022/08/02 23:57:37;;;;;;;1.17;1.10;;;;;;;;;;8415211;28;20106;-71
